Grabill, Indiana
Current Conditions -  °F | °C
As of 10:15 PM on Thursday 18 Dec 2014 (Local Time) from KGWB Reporting Station
Overcast Overcast  
Wind Chill: 22°   Ceiling: 2700
Heat Index: 28°   Visibility: 7mi
Dew Point: 23°   Wind: 6mph
Humidity: 80%   Direction: 260°W
Pressure: 30.22"   Gusts: NA
Location:  41.21°N, 84.97°W
Report Text: KGWB 190315Z AUTO 26005KT 7SM OVC027 M02/M05 A3022 RMK AO2
Loading
Personal Weather Stations






























Interactive Weather Map New forecast layout! Learn more

10-Day Weather Forecast

Advertisements
Track Severe Weather on mobile